createdAt,value
2019-03-19T00:02:09.302Z,5.10
2019-03-19T00:07:08.894Z,5.00
2019-03-19T00:12:08.442Z,4.90
2019-03-19T00:17:09.042Z,4.80
2019-03-19T00:22:08.591Z,4.80
2019-03-19T00:27:08.187Z,4.80
2019-03-19T00:32:07.717Z,4.80
2019-03-19T00:37:07.251Z,4.70
2019-03-19T00:42:06.787Z,4.60
2019-03-19T00:47:06.327Z,4.60
2019-03-19T00:52:05.862Z,4.60
2019-03-19T00:57:05.402Z,4.70
2019-03-19T01:02:05.010Z,4.60
2019-03-19T01:07:04.686Z,4.60
2019-03-19T01:12:04.209Z,4.50
2019-03-19T01:17:03.762Z,4.60
2019-03-19T01:22:03.294Z,4.50
2019-03-19T01:27:02.823Z,4.40
2019-03-19T01:32:02.371Z,4.50
2019-03-19T01:37:01.918Z,4.50
2019-03-19T01:42:01.476Z,4.50
2019-03-19T01:47:01.005Z,4.60
2019-03-19T01:52:00.541Z,4.70
2019-03-19T01:57:00.081Z,4.80
2019-03-19T02:01:59.670Z,4.70
2019-03-19T02:06:59.231Z,4.70
2019-03-19T02:11:58.786Z,4.70
2019-03-19T02:16:58.346Z,4.80
2019-03-19T02:21:57.890Z,4.70
2019-03-19T02:26:57.417Z,4.70
2019-03-19T02:31:56.994Z,4.80
2019-03-19T02:36:56.535Z,4.70
2019-03-19T02:41:56.075Z,4.70
2019-03-19T02:46:55.603Z,4.60
2019-03-19T02:51:56.117Z,4.70
2019-03-19T02:56:55.655Z,4.60
2019-03-19T03:01:55.199Z,4.50
2019-03-19T03:06:54.739Z,4.50
2019-03-19T03:11:54.292Z,4.40
2019-03-19T03:16:53.895Z,4.50
2019-03-19T03:21:53.442Z,4.40
2019-03-19T03:26:52.995Z,4.40
2019-03-19T03:31:52.599Z,4.40
2019-03-19T03:36:52.135Z,4.30
2019-03-19T03:41:51.661Z,4.20
2019-03-19T03:46:51.203Z,4.30
2019-03-19T03:51:50.730Z,4.30
2019-03-19T03:57:01.134Z,4.30
2019-03-19T04:01:51.588Z,4.30
2019-03-19T04:06:51.130Z,4.40
2019-03-19T04:11:50.667Z,4.40
2019-03-19T04:16:50.282Z,4.50
2019-03-19T04:21:49.812Z,4.50
2019-03-19T04:26:50.521Z,4.60
2019-03-19T04:31:50.130Z,4.60
2019-03-19T04:36:49.779Z,4.50
2019-03-19T04:41:49.330Z,4.60
2019-03-19T04:46:48.875Z,4.60
2019-03-19T04:51:48.407Z,4.70
2019-03-19T04:56:47.953Z,4.70
2019-03-19T05:01:47.474Z,4.60
2019-03-19T05:06:47.028Z,4.50
2019-03-19T05:11:46.566Z,4.50
2019-03-19T05:16:46.104Z,4.50
2019-03-19T05:21:45.646Z,4.50
2019-03-19T05:26:45.169Z,4.40
2019-03-19T05:31:44.711Z,4.40
2019-03-19T05:36:44.249Z,4.50
2019-03-19T05:41:43.799Z,4.40
2019-03-19T05:46:43.319Z,4.50
2019-03-19T05:51:42.869Z,4.70
2019-03-19T05:56:42.509Z,4.80
2019-03-19T06:01:43.039Z,4.80
2019-03-19T06:06:42.587Z,4.70
2019-03-19T06:11:42.136Z,4.80
2019-03-19T06:16:41.665Z,4.80
2019-03-19T06:21:41.197Z,4.80
2019-03-19T06:26:40.733Z,4.80
2019-03-19T06:31:40.282Z,4.70
2019-03-19T06:36:39.832Z,4.80
2019-03-19T06:41:39.374Z,5.00
2019-03-19T06:46:38.961Z,5.00
2019-03-19T06:51:38.611Z,5.10
2019-03-19T06:56:38.147Z,5.00
2019-03-19T07:01:37.670Z,4.90
2019-03-19T07:06:37.198Z,4.90
2019-03-19T07:11:36.753Z,4.90
2019-03-19T07:16:36.375Z,4.90
2019-03-19T07:21:35.907Z,4.90
2019-03-19T07:26:36.445Z,4.90
2019-03-19T07:31:35.977Z,5.10
2019-03-19T07:36:35.517Z,5.20
2019-03-19T07:41:35.071Z,5.30
2019-03-19T07:46:34.687Z,5.50
2019-03-19T07:51:34.209Z,5.40
2019-03-19T07:56:34.753Z,5.80
2019-03-19T08:01:35.827Z,5.90
2019-03-19T08:06:35.495Z,6.20
2019-03-19T08:11:35.047Z,6.30
2019-03-19T08:16:34.681Z,6.30
2019-03-19T08:21:34.228Z,6.30
2019-03-19T08:26:33.769Z,6.30
2019-03-19T08:31:33.302Z,6.50
2019-03-19T08:36:32.891Z,6.50
2019-03-19T08:41:32.481Z,7.00
2019-03-19T08:46:32.029Z,7.20
2019-03-19T08:51:31.604Z,7.50
2019-03-19T08:56:31.138Z,7.40
2019-03-19T09:01:30.670Z,7.10
2019-03-19T09:06:30.217Z,7.40
2019-03-19T09:11:29.749Z,8.20
2019-03-19T09:16:29.304Z,8.80
2019-03-19T09:21:28.837Z,9.10
2019-03-19T09:26:28.383Z,8.70
2019-03-19T09:31:27.948Z,8.30
2019-03-19T09:36:27.490Z,7.90
2019-03-19T09:41:27.107Z,7.80
2019-03-19T09:46:26.728Z,8.10
2019-03-19T09:51:26.276Z,8.50
2019-03-19T09:56:25.801Z,9.30
2019-03-19T10:01:26.335Z,9.10
2019-03-19T10:06:25.874Z,10.50
2019-03-19T10:11:25.470Z,10.00
2019-03-19T10:16:25.391Z,10.30
2019-03-19T10:21:24.995Z,9.70
2019-03-19T10:26:25.888Z,9.80
2019-03-19T10:31:25.482Z,9.90
2019-03-19T10:36:25.043Z,9.30
2019-03-19T10:41:24.643Z,8.90
2019-03-19T10:46:24.206Z,9.50
2019-03-19T10:51:23.754Z,9.80
2019-03-19T10:56:23.318Z,10.20
2019-03-19T11:01:22.876Z,11.70
2019-03-19T11:06:22.661Z,10.10
2019-03-19T11:11:22.194Z,10.50
2019-03-19T11:16:21.850Z,13.00
2019-03-19T11:21:21.390Z,13.40
2019-03-19T11:26:20.953Z,12.80
2019-03-19T11:31:20.528Z,12.60
2019-03-19T11:36:20.398Z,10.60
2019-03-19T11:41:19.946Z,9.30
2019-03-19T11:46:19.545Z,8.60
2019-03-19T11:51:19.113Z,8.40
2019-03-19T11:56:18.795Z,8.20
2019-03-19T12:01:18.421Z,8.80
2019-03-19T12:06:18.045Z,9.60
2019-03-19T12:11:17.766Z,10.30
2019-03-19T12:16:18.207Z,9.80
2019-03-19T12:21:17.797Z,9.10
2019-03-19T12:26:17.342Z,9.10
2019-03-19T12:31:16.883Z,9.30
2019-03-19T12:36:16.449Z,10.20
2019-03-19T12:41:15.986Z,9.50
2019-03-19T12:46:15.527Z,9.10
2019-03-19T12:51:16.331Z,8.70
2019-03-19T12:56:16.373Z,8.70
2019-03-19T13:01:16.018Z,8.70
2019-03-19T13:06:15.601Z,8.80
2019-03-19T13:11:15.163Z,8.90
2019-03-19T13:16:14.718Z,9.10
2019-03-19T13:21:14.239Z,8.80
2019-03-19T13:26:13.774Z,8.90
2019-03-19T13:31:13.315Z,8.60
2019-03-19T13:36:12.941Z,8.60
2019-03-19T13:41:12.510Z,8.90
2019-03-19T13:46:12.076Z,9.20
2019-03-19T13:51:11.616Z,9.20
2019-03-19T13:56:11.153Z,9.60
2019-03-19T14:01:10.686Z,9.40
2019-03-19T14:06:10.238Z,9.50
2019-03-19T14:11:09.801Z,9.50
2019-03-19T14:16:09.398Z,9.40
2019-03-19T14:21:08.952Z,9.40
2019-03-19T14:26:08.509Z,9.30
2019-03-19T14:31:09.044Z,9.50
2019-03-19T14:36:10.362Z,9.80
2019-03-19T14:41:10.222Z,10.00
2019-03-19T14:46:09.775Z,9.90
2019-03-19T14:51:09.317Z,9.40
2019-03-19T14:56:08.870Z,10.20
2019-03-19T15:01:18.695Z,10.90
2019-03-19T15:06:09.645Z,12.60
2019-03-19T15:11:09.190Z,12.40
2019-03-19T15:16:08.818Z,11.10
2019-03-19T15:21:08.441Z,10.30
2019-03-19T15:26:08.065Z,10.00
2019-03-19T15:31:07.607Z,10.00
2019-03-19T15:36:07.161Z,10.00
2019-03-19T15:41:06.689Z,9.70
2019-03-19T15:46:06.402Z,9.70
2019-03-19T15:51:05.933Z,9.60
2019-03-19T15:56:05.567Z,9.30
2019-03-19T16:01:05.293Z,9.30
2019-03-19T16:06:05.010Z,9.30
2019-03-19T16:11:04.725Z,9.40
2019-03-19T16:16:04.257Z,9.60
2019-03-19T16:21:03.854Z,10.80
2019-03-19T16:26:03.442Z,11.30
2019-03-19T16:31:03.041Z,11.30
2019-03-19T16:36:02.594Z,10.60
2019-03-19T16:41:02.138Z,10.40
2019-03-19T16:46:01.701Z,9.90
2019-03-19T16:51:01.242Z,9.60
2019-03-19T16:56:00.788Z,9.40
2019-03-19T17:01:00.329Z,9.20
2019-03-19T17:05:59.943Z,9.10
2019-03-19T17:10:59.497Z,9.00
2019-03-19T17:15:59.028Z,8.90
2019-03-19T17:20:58.574Z,8.70
2019-03-19T17:25:58.134Z,8.60
2019-03-19T17:30:57.671Z,8.50
2019-03-19T17:35:57.219Z,8.40
2019-03-19T17:40:56.784Z,8.40
2019-03-19T17:45:56.329Z,8.20
2019-03-19T17:50:56.493Z,8.20
2019-03-19T17:55:56.032Z,8.00
2019-03-19T18:00:55.655Z,7.90
2019-03-19T18:05:55.210Z,7.80
2019-03-19T18:10:54.785Z,7.80
2019-03-19T18:15:54.342Z,7.80
2019-03-19T18:20:53.889Z,7.80
2019-03-19T18:25:53.441Z,7.80
2019-03-19T18:30:52.973Z,7.70
2019-03-19T18:35:55.305Z,7.60
2019-03-19T18:40:53.757Z,7.70
2019-03-19T18:45:54.368Z,7.60
2019-03-19T18:50:53.898Z,7.60
2019-03-19T18:55:54.513Z,7.60
2019-03-19T19:00:54.057Z,7.50
2019-03-19T19:05:53.607Z,7.50
2019-03-19T19:10:53.139Z,7.40
2019-03-19T19:15:52.677Z,7.30
2019-03-19T19:20:52.226Z,7.10
2019-03-19T19:25:51.779Z,7.00
2019-03-19T19:30:51.323Z,6.90
2019-03-19T19:35:50.850Z,6.90
2019-03-19T19:40:50.410Z,6.80
2019-03-19T19:45:50.040Z,6.70
2019-03-19T19:50:49.565Z,6.70
2019-03-19T19:55:49.141Z,6.60
2019-03-19T20:00:48.661Z,6.60
2019-03-19T20:05:48.207Z,6.50
2019-03-19T20:10:47.762Z,6.60
2019-03-19T20:15:47.305Z,6.50
2019-03-19T20:20:46.931Z,6.60
2019-03-19T20:25:46.522Z,6.60
2019-03-19T20:30:46.145Z,6.60
2019-03-19T20:35:46.642Z,6.60
2019-03-19T20:40:48.468Z,6.60
2019-03-19T20:45:47.990Z,6.50
2019-03-19T20:50:47.523Z,6.40
2019-03-19T20:55:47.071Z,6.40
2019-03-19T21:00:46.625Z,6.30
2019-03-19T21:05:47.222Z,6.20
2019-03-19T21:10:46.778Z,6.10
2019-03-19T21:15:46.318Z,6.00
2019-03-19T21:20:45.862Z,6.00
2019-03-19T21:25:45.400Z,5.90
2019-03-19T21:30:44.962Z,5.80
2019-03-19T21:35:44.533Z,5.70
2019-03-19T21:40:44.192Z,5.80
2019-03-19T21:45:43.875Z,5.80
2019-03-19T21:50:43.648Z,5.80
2019-03-19T21:55:43.181Z,5.70
2019-03-19T22:00:42.730Z,5.70
2019-03-19T22:05:42.276Z,5.70
2019-03-19T22:10:41.885Z,5.70
2019-03-19T22:15:42.987Z,5.70
2019-03-19T22:20:42.565Z,5.60
2019-03-19T22:25:42.112Z,5.60
2019-03-19T22:30:41.641Z,5.50
2019-03-19T22:35:41.198Z,5.40
2019-03-19T22:40:40.726Z,5.30
2019-03-19T22:45:40.258Z,5.30
2019-03-19T22:50:39.789Z,5.40
2019-03-19T22:55:39.436Z,5.30
2019-03-19T23:00:42.508Z,5.20
2019-03-19T23:05:43.306Z,5.20
2019-03-19T23:10:42.928Z,5.10
2019-03-19T23:15:42.481Z,5.10
2019-03-19T23:20:42.145Z,5.00
2019-03-19T23:25:41.707Z,5.00
2019-03-19T23:30:41.303Z,4.90
2019-03-19T23:35:40.835Z,4.80
2019-03-19T23:40:40.411Z,4.80
2019-03-19T23:45:40.010Z,4.80
2019-03-19T23:50:39.550Z,4.70
2019-03-19T23:55:39.153Z,4.60
